• Join FlightAware (Why Join?)
  • Login
  • US Flag 
04:57PM EST


 

Airport Tracker/Info


-or-


 

Live Flight TrackerFlight Track Log ✈ KAP720 ✈ 08-May-2013 ✈ KOGS - KALB

Flight Track Log - Related Links

Times and Time Zones

All times are in EDT time to prevent confusion due to time zone crossing. See the KAP720 flight status page for this flight to view local times or setup timezone preferences in your user account.

Time Position Orientation Groundspeed Altitude Reporting Facility
EDT Latitude Longitude Course Direction KTS MPH feet Rate Location/Type
07:13AM 44.4794 -75.2419 68° East 154 177 4,600  Level Boston Center
07:14AM 44.4508 -75.2203 152° Southeast 135 155 5,100 420 Climbing Boston Center
07:15AM 44.4200 -75.1986 153° Southeast 129 148 5,500 180 Climbing Boston Center
07:16AM 44.3853 -75.1736 153° Southeast 129 148 5,500 -60 Level Boston Center
07:17AM 44.7792 -75.1146 68° East  Level FlightAware Approximate
07:17AM 44.3528 -75.1375 142° Southeast 134 154 5,400  Level Boston Center
07:18AM 44.3219 -75.1097 147° Southeast 139 160 5,500  Climbing Boston Center
07:19AM 44.2956 -75.0856 147° Southeast 139 160 5,500  Level Boston Center
07:20AM 44.2589 -75.0519 147° Southeast 139 160 5,500  Level Boston Center
07:21AM 44.2219 -75.0242 152° Southeast 139 160 5,500  Level Boston Center
07:22AM 44.1892 -74.9997 152° Southeast 139 160 5,500  Level Boston Center
07:23AM 44.1564 -74.9722 149° Southeast 139 160 5,500 -60 Level Boston Center
07:24AM 44.1236 -74.9419 146° Southeast 139 160 5,400 -60 Descending Boston Center
07:25AM 44.0889 -74.9114 148° Southeast 139 160 5,400  Level Boston Center
07:26AM 44.0561 -74.8842 149° Southeast 139 160 5,400  Level Boston Center
07:27AM 44.0233 -74.8567 149° Southeast 139 160 5,400  Level Boston Center
07:28AM 43.9906 -74.8267 147° Southeast 139 160 5,400  Level Boston Center
07:29AM 43.9578 -74.8022 152° Southeast 139 160 5,400  Level Boston Center
07:30AM 43.9211 -74.7692 147° Southeast 139 160 5,400  Level Boston Center
07:31AM 43.8883 -74.7419 149° Southeast 139 160 5,500  Climbing Boston Center
07:32AM 43.8556 -74.7119 147° Southeast 139 160 5,500  Level Boston Center
07:33AM 43.8225 -74.6847 149° Southeast 139 160 5,500  Level Boston Center
07:34AM 43.7878 -74.6575 150° Southeast 139 160 5,500  Level Boston Center
07:35AM 43.7550 -74.6306 149° Southeast 139 160 5,500  Level Boston Center
07:36AM 43.7222 -74.6006 147° Southeast 139 160 5,500  Level Boston Center
07:37AM 43.6872 -74.5733 151° Southeast 139 160 5,500  Level Boston Center
07:38AM 43.6544 -74.5436 147° Southeast 139 160 5,500  Level Boston Center
07:39AM 43.6214 -74.5194 152° Southeast 139 160 5,600  Climbing Boston Center
07:40AM 43.5886 -74.4897 147° Southeast 139 160 5,500 -60 Descending Boston Center
07:41AM 43.5558 -74.4656 152° Southeast 139 160 5,500  Level Boston Center
07:42AM 43.5250 -74.4389 148° Southeast 139 160 5,500  Level Boston Center
07:43AM 43.4922 -74.4119 149° Southeast 139 160 5,500  Level Boston Center
07:44AM 43.4592 -74.3850 149° Southeast 139 160 5,500 60 Level Boston Center
07:45AM 43.4386 -74.3703 153° Southeast 139 160 5,600  Climbing Boston Center
07:45AM 43.4244 -74.3525 138° Southeast 139 160 5,500 -120 Descending Boston Center
07:46AM 43.3914 -74.3258 150° Southeast 139 160 5,500  Level Boston Center
07:47AM 43.3564 -74.2961 148° Southeast 139 160 5,500  Level Boston Center
07:48AM 43.3236 -74.2694 149° Southeast 139 160 5,500  Level Boston Center
07:49AM 43.2906 -74.2428 150° Southeast 139 160 5,500  Level Boston Center
07:50AM 43.2578 -74.2161 149° Southeast 139 160 5,500  Level Boston Center
07:51AM 43.2269 -74.1897 148° Southeast 139 160 5,500  Level Boston Center
07:52AM 43.1939 -74.1631 150° Southeast 139 160 5,500  Level Boston Center
07:53AM 43.1589 -74.1364 151° Southeast 139 160 5,600  Climbing Boston Center
07:55AM 43.1178 -74.1069 152° Southeast 139 160 5,600 -180 Level Boston Center
07:55AM 43.0931 -74.0833 145° Southeast 139 160 5,300 -540 Descending Boston Center
07:56AM 43.0847 -74.0803 165° South 139 160 5,100 -720 Descending Boston Center
07:56AM 43.0558 -74.0542 147° Southeast 151 174 4,600 -720 Descending Boston Center
07:57AM 43.0456 -74.0453 148° Southeast 168 193 4,400 -540 Descending Boston Center
07:57AM 43.0167 -74.0189 146° Southeast 161 185 4,100 -420 Descending Boston Center
07:58AM 43.0064 -74.0131 157° South 167 192 4,000 -420 Descending Boston Center
07:58AM 42.9797 -73.9897 147° Southeast 161 185 3,700 -540 Descending Boston Center
07:59AM 42.9672 -73.9836 160° South 157 181 3,500 -540 Descending Boston Center
07:59AM 42.9469 -73.9519 131° Southeast 161 185 3,200 -480 Descending Boston Center
08:00AM 42.9344 -73.9347 135° Southeast 155 178 3,000 -600 Descending Boston Center
08:01AM 42.9039 -73.8856 130° Southeast 162 186 2,400 -360 Descending Boston Center
08:02AM 42.8753 -73.8453 134° Southeast 151 174 2,300 -180 Descending Boston Center
08:03AM 42.8381 -73.8189 153° Southeast 129 148 2,100 -540 Descending Boston Center
08:04AM 42.8028 -73.8125 172° South 130 150 1,200 -780 Descending Boston Center
08:05AM 42.7694 -73.8089 175° South 117 135 600 -600 Descending Boston Center
08:07AM 42.7491 -73.8020 150° Southeast  Level Estimated
08:14AM 42.7491 -73.8020 150° Southeast  Level Estimated
08:15AM 42.7491 -73.8020 150° Southeast  Level Estimated
08:16AM 42.7491 -73.8020 150° Southeast  Level Estimated
08:17AM 42.7491 -73.8020 150° Southeast  Level Estimated